createdAt,value
2022-10-18T00:01:40.413Z,18.80
2022-10-18T00:04:08.321Z,19.00
2022-10-18T00:06:37.677Z,18.80
2022-10-18T00:09:07.789Z,19.20
2022-10-18T00:11:35.635Z,19.10
2022-10-18T00:14:03.517Z,19.00
2022-10-18T00:16:32.729Z,19.00
2022-10-18T00:19:00.628Z,19.10
2022-10-18T00:21:28.519Z,19.30
2022-10-18T00:23:56.483Z,19.30
2022-10-18T00:26:24.865Z,19.30
2022-10-18T00:28:53.401Z,19.30
2022-10-18T00:31:22.273Z,19.50
2022-10-18T00:33:52.411Z,19.40
2022-10-18T00:36:20.267Z,19.50
2022-10-18T00:38:48.188Z,19.50
2022-10-18T00:41:18.071Z,19.70
2022-10-18T00:43:52.763Z,19.70
2022-10-18T00:46:20.647Z,19.70
2022-10-18T00:48:48.603Z,19.80
2022-10-18T00:51:17.902Z,19.80
2022-10-18T00:53:45.778Z,20.20
2022-10-18T00:56:13.972Z,20.10
2022-10-18T00:58:41.860Z,20.30
2022-10-18T01:01:09.713Z,20.30
2022-10-18T01:03:37.607Z,20.40
2022-10-18T01:06:05.620Z,20.30
2022-10-18T01:08:42.250Z,20.30
2022-10-18T01:11:13.123Z,20.30
2022-10-18T01:13:43.748Z,20.30
2022-10-18T01:16:13.859Z,20.30
2022-10-18T01:18:42.940Z,20.50
2022-10-18T01:21:14.603Z,20.30
2022-10-18T01:23:56.129Z,20.30
2022-10-18T01:26:30.829Z,20.30
2022-10-18T01:29:00.575Z,20.30
2022-10-18T01:31:31.009Z,20.30
2022-10-18T01:33:59.118Z,20.20
2022-10-18T01:36:27.151Z,20.50
2022-10-18T01:38:55.531Z,20.30
2022-10-18T01:41:23.765Z,20.20
2022-10-18T01:43:52.134Z,20.20
2022-10-18T01:46:20.278Z,20.20
2022-10-18T01:48:49.574Z,20.30
2022-10-18T01:51:19.500Z,20.30
2022-10-18T01:53:47.355Z,20.40
2022-10-18T01:56:17.712Z,20.40
2022-10-18T01:58:48.085Z,20.50
2022-10-18T02:01:18.805Z,20.10
2022-10-18T02:03:47.092Z,20.10
2022-10-18T02:06:18.462Z,20.30
2022-10-18T02:08:47.258Z,20.20
2022-10-18T02:11:15.288Z,20.30
2022-10-18T02:13:43.522Z,20.20
2022-10-18T02:16:11.677Z,20.20
2022-10-18T02:22:09.232Z,20.00
2022-10-18T02:24:37.773Z,19.70
2022-10-18T02:27:05.615Z,19.80
2022-10-18T02:29:33.487Z,19.90
2022-10-18T02:32:03.579Z,20.20
2022-10-18T02:34:31.937Z,19.90
2022-10-18T02:37:00.232Z,19.80
2022-10-18T02:39:30.703Z,19.90
2022-10-18T02:41:58.540Z,20.30
2022-10-18T02:44:26.572Z,20.30
2022-10-18T02:46:54.420Z,20.60
2022-10-18T02:49:22.482Z,20.30
2022-10-18T02:51:50.352Z,20.50
2022-10-18T02:54:18.233Z,20.60
2022-10-18T02:56:47.457Z,20.70
2022-10-18T02:59:15.315Z,20.80
2022-10-18T03:01:43.207Z,20.80
2022-10-18T03:04:11.220Z,20.50
2022-10-18T03:06:39.073Z,20.70
2022-10-18T03:09:07.147Z,20.80
2022-10-18T03:11:35.022Z,20.40
2022-10-18T03:14:04.326Z,20.30
2022-10-18T03:16:32.200Z,20.10
2022-10-18T03:19:00.087Z,20.30
2022-10-18T03:21:28.026Z,20.70
2022-10-18T03:23:56.181Z,20.60
2022-10-18T03:26:24.028Z,20.40
2022-10-18T03:28:51.993Z,20.30
2022-10-18T03:31:21.354Z,20.10
2022-10-18T03:33:49.350Z,20.10
2022-10-18T03:36:17.239Z,19.80
2022-10-18T03:38:45.126Z,20.00
2022-10-18T03:41:13.010Z,19.90
2022-10-18T03:43:40.911Z,19.90
2022-10-18T03:46:08.767Z,20.00
2022-10-18T03:48:38.037Z,19.80
2022-10-18T03:51:06.043Z,19.80
2022-10-18T03:53:33.909Z,20.00
2022-10-18T03:56:01.769Z,20.10
2022-10-18T03:58:29.754Z,20.40
2022-10-18T04:00:57.628Z,20.30
2022-10-18T04:03:25.528Z,20.00
2022-10-18T04:05:54.746Z,20.20
2022-10-18T04:08:22.699Z,20.30
2022-10-18T04:10:52.502Z,20.30
2022-10-18T04:13:20.391Z,20.40
2022-10-18T04:15:48.663Z,20.40
2022-10-18T04:18:16.546Z,20.20
2022-10-18T04:20:44.411Z,20.30
2022-10-18T04:23:13.725Z,20.30
2022-10-18T04:28:14.382Z,20.20
2022-10-18T04:30:42.253Z,20.20
2022-10-18T04:33:10.135Z,19.90
2022-10-18T04:35:37.986Z,19.70
2022-10-18T04:38:05.830Z,19.90
2022-10-18T04:40:35.068Z,19.90
2022-10-18T04:43:02.933Z,19.70
2022-10-18T04:45:30.805Z,19.50
2022-10-18T04:47:58.636Z,19.40
2022-10-18T04:50:26.507Z,19.60
2022-10-18T04:52:54.821Z,19.70
2022-10-18T04:55:22.755Z,19.40
2022-10-18T04:57:51.968Z,19.20
2022-10-18T05:00:19.944Z,19.30
2022-10-18T05:02:47.827Z,19.40
2022-10-18T05:05:15.830Z,19.30
2022-10-18T05:07:43.679Z,19.30
2022-10-18T05:10:11.586Z,19.40
2022-10-18T05:12:39.484Z,19.30
2022-10-18T05:15:09.620Z,19.40
2022-10-18T05:17:37.512Z,19.50
2022-10-18T05:20:05.747Z,19.50
2022-10-18T05:22:33.988Z,19.50
2022-10-18T05:25:01.972Z,19.60
2022-10-18T05:27:29.840Z,19.60
2022-10-18T05:30:00.031Z,19.40
2022-10-18T05:32:32.351Z,19.60
2022-10-18T05:35:00.387Z,19.60
2022-10-18T05:37:28.517Z,19.70
2022-10-18T05:39:56.458Z,19.80
2022-10-18T05:42:24.303Z,19.80
2022-10-18T05:44:52.217Z,19.50
2022-10-18T05:47:20.149Z,19.40
2022-10-18T05:49:49.504Z,19.70
2022-10-18T05:52:17.732Z,19.70
2022-10-18T05:54:45.587Z,19.80
2022-10-18T05:57:13.449Z,19.80
2022-10-18T05:59:41.352Z,19.80
2022-10-18T06:02:09.869Z,19.90
2022-10-18T06:04:37.764Z,20.00
2022-10-18T06:07:09.697Z,20.10
2022-10-18T06:09:37.596Z,20.00
2022-10-18T06:12:05.523Z,20.00
2022-10-18T06:14:33.449Z,20.20
2022-10-18T06:17:01.310Z,19.90
2022-10-18T06:19:29.188Z,20.00
2022-10-18T06:21:57.033Z,19.90
2022-10-18T06:24:26.777Z,19.80
2022-10-18T06:26:54.697Z,19.80
2022-10-18T06:29:22.597Z,19.90
2022-10-18T06:31:50.423Z,19.80
2022-10-18T06:34:18.321Z,19.80
2022-10-18T06:36:46.276Z,20.00
2022-10-18T06:39:14.157Z,19.80
2022-10-18T06:41:43.406Z,19.90
2022-10-18T06:44:14.053Z,20.00
2022-10-18T06:46:41.955Z,20.00
2022-10-18T06:49:10.656Z,20.20
2022-10-18T06:51:39.197Z,20.10
2022-10-18T06:54:17.451Z,20.30
2022-10-18T06:56:47.899Z,20.50
2022-10-18T06:59:16.038Z,20.50
2022-10-18T07:01:44.197Z,20.50
2022-10-18T07:04:12.403Z,20.70
2022-10-18T07:06:40.263Z,20.80
2022-10-18T07:09:08.145Z,20.80
2022-10-18T07:11:36.040Z,20.80
2022-10-18T07:14:05.345Z,20.60
2022-10-18T07:16:33.323Z,20.60
2022-10-18T07:19:01.209Z,20.40
2022-10-18T07:21:29.278Z,20.50
2022-10-18T07:23:57.406Z,20.20
2022-10-18T07:26:25.670Z,20.00
2022-10-18T07:28:54.714Z,20.30
2022-10-18T07:31:24.034Z,20.40
2022-10-18T07:33:51.953Z,20.80
2022-10-18T07:36:21.272Z,20.80
2022-10-18T07:38:49.266Z,20.50
2022-10-18T07:41:17.209Z,20.40
2022-10-18T07:43:46.094Z,20.40
2022-10-18T07:46:14.165Z,20.20
2022-10-18T07:48:43.431Z,20.30
2022-10-18T07:51:11.586Z,20.40
2022-10-18T07:53:39.622Z,20.40
2022-10-18T07:56:09.580Z,20.40
2022-10-18T07:58:37.778Z,20.50
2022-10-18T08:01:05.931Z,20.40
2022-10-18T08:03:34.103Z,20.60
2022-10-18T08:06:03.568Z,20.50
2022-10-18T08:08:31.509Z,20.50
2022-10-18T08:11:03.308Z,20.70
2022-10-18T08:13:31.508Z,20.70
2022-10-18T08:16:00.846Z,20.50
2022-10-18T08:18:28.926Z,20.20
2022-10-18T08:20:56.830Z,20.20
2022-10-18T08:23:26.090Z,20.30
2022-10-18T08:25:53.968Z,20.50
2022-10-18T08:28:21.888Z,20.60
2022-10-18T08:30:49.768Z,20.50
2022-10-18T08:33:17.702Z,20.60
2022-10-18T08:35:45.588Z,20.90
2022-10-18T08:38:18.054Z,20.90
2022-10-18T08:40:48.819Z,21.00
2022-10-18T08:43:21.597Z,20.80
2022-10-18T08:45:49.741Z,20.90
2022-10-18T08:48:18.997Z,20.80
2022-10-18T08:50:46.858Z,21.00
2022-10-18T08:53:15.528Z,21.20
2022-10-18T08:55:44.110Z,21.20
2022-10-18T08:58:16.652Z,21.30
2022-10-18T09:00:45.143Z,21.50
2022-10-18T09:03:19.471Z,21.50
2022-10-18T09:05:49.687Z,21.50
2022-10-18T09:08:30.024Z,21.60
2022-10-18T09:11:00.175Z,21.80
2022-10-18T09:13:33.967Z,21.80
2022-10-18T09:16:02.209Z,21.40
2022-10-18T09:18:34.528Z,21.80
2022-10-18T09:21:04.939Z,21.70
2022-10-18T09:23:34.489Z,21.70
2022-10-18T09:26:03.240Z,21.50
2022-10-18T09:28:34.144Z,21.70
2022-10-18T09:31:03.585Z,21.80
2022-10-18T09:33:35.779Z,21.70
2022-10-18T09:36:04.448Z,21.80
2022-10-18T09:38:32.740Z,21.40
2022-10-18T09:41:01.878Z,21.60
2022-10-18T09:43:36.438Z,21.80
2022-10-18T09:46:04.977Z,22.50
2022-10-18T09:48:34.552Z,23.10
2022-10-18T09:51:03.482Z,23.20
2022-10-18T09:53:35.318Z,22.90
2022-10-18T09:56:03.753Z,22.90
2022-10-18T09:58:35.440Z,23.20
2022-10-18T10:01:03.335Z,23.90
2022-10-18T10:03:31.375Z,24.20
2022-10-18T10:06:16.131Z,24.50
2022-10-18T10:08:44.172Z,24.60
2022-10-18T10:11:27.035Z,25.00
2022-10-18T10:13:57.346Z,24.80
2022-10-18T10:16:25.326Z,24.90
2022-10-18T10:18:53.753Z,25.30
2022-10-18T10:21:22.327Z,25.60
2022-10-18T10:23:52.613Z,25.30
2022-10-18T10:26:22.676Z,25.40
2022-10-18T10:28:50.618Z,25.00
2022-10-18T10:31:22.530Z,25.10
2022-10-18T10:33:52.267Z,24.90
2022-10-18T10:36:20.533Z,25.10
2022-10-18T10:38:48.698Z,25.20
2022-10-18T10:41:20.255Z,25.20
2022-10-18T10:43:48.210Z,25.70
2022-10-18T10:46:16.237Z,25.70
2022-10-18T10:48:49.360Z,26.00
2022-10-18T10:51:17.585Z,25.80
2022-10-18T10:53:47.458Z,25.60
2022-10-18T10:56:17.061Z,25.60
2022-10-18T10:58:45.099Z,25.40
2022-10-18T11:01:20.166Z,24.70
2022-10-18T11:03:50.601Z,25.30
2022-10-18T11:06:39.132Z,25.50
2022-10-18T11:09:09.918Z,24.80
2022-10-18T11:11:38.900Z,25.10
2022-10-18T11:14:26.918Z,26.10
2022-10-18T11:16:57.206Z,25.50
2022-10-18T11:19:30.517Z,25.30
2022-10-18T11:21:58.368Z,25.10
2022-10-18T11:24:26.363Z,24.30
2022-10-18T11:26:54.969Z,23.80
2022-10-18T11:29:26.614Z,24.60
2022-10-18T11:31:56.599Z,25.00
2022-10-18T11:34:29.030Z,25.30
2022-10-18T11:37:22.865Z,25.90
2022-10-18T11:39:50.571Z,26.00
2022-10-18T11:42:20.724Z,25.30
2022-10-18T11:44:51.145Z,24.80
2022-10-18T11:47:19.981Z,24.40
2022-10-18T11:49:54.950Z,23.80
2022-10-18T11:52:25.478Z,24.50
2022-10-18T11:55:06.034Z,24.80
2022-10-18T11:57:48.768Z,24.70
2022-10-18T12:00:31.540Z,25.10
2022-10-18T12:03:04.898Z,24.80
2022-10-18T12:05:32.845Z,24.70
2022-10-18T12:08:03.299Z,25.80
2022-10-18T12:10:45.771Z,25.80
2022-10-18T12:13:20.038Z,26.30
2022-10-18T12:15:47.902Z,26.40
2022-10-18T12:18:16.386Z,26.20
2022-10-18T12:20:44.858Z,25.50
2022-10-18T12:23:15.143Z,24.30
2022-10-18T12:25:44.302Z,24.40
2022-10-18T12:28:14.954Z,25.30
2022-10-18T12:30:43.452Z,26.50
2022-10-18T12:33:27.235Z,26.90
2022-10-18T12:35:58.709Z,25.60
2022-10-18T12:38:27.992Z,24.60
2022-10-18T12:40:55.842Z,24.00
2022-10-18T12:43:24.597Z,23.60
2022-10-18T12:45:53.591Z,23.70
2022-10-18T12:48:31.718Z,23.80
2022-10-18T12:51:00.344Z,24.00
2022-10-18T12:53:29.708Z,24.30
2022-10-18T12:55:57.563Z,24.30
2022-10-18T12:58:29.214Z,24.80
2022-10-18T13:01:06.759Z,24.90
2022-10-18T13:03:39.530Z,24.30
2022-10-18T13:06:07.501Z,24.80
2022-10-18T13:08:42.020Z,25.00
2022-10-18T13:11:29.019Z,26.00
2022-10-18T13:14:02.425Z,26.30
2022-10-18T13:16:32.368Z,26.30
2022-10-18T13:19:00.682Z,24.70
2022-10-18T13:21:31.324Z,25.30
2022-10-18T13:24:03.742Z,25.40
2022-10-18T13:26:34.225Z,25.80
2022-10-18T13:29:03.297Z,24.80
2022-10-18T13:31:32.166Z,25.30
2022-10-18T13:34:14.939Z,24.60
2022-10-18T13:36:42.803Z,24.20
2022-10-18T13:39:17.128Z,24.70
2022-10-18T13:42:03.734Z,24.50
2022-10-18T13:44:32.612Z,24.30
2022-10-18T13:47:18.202Z,24.60
2022-10-18T13:50:04.154Z,23.70
2022-10-18T13:52:35.640Z,24.30
2022-10-18T13:55:10.047Z,24.30
2022-10-18T13:57:42.670Z,23.80
2022-10-18T14:00:23.128Z,24.00
2022-10-18T14:02:59.678Z,24.20
2022-10-18T14:05:45.949Z,23.80
2022-10-18T14:08:14.315Z,23.80
2022-10-18T14:11:01.292Z,24.20
2022-10-18T14:13:30.144Z,23.70
2022-10-18T14:15:58.802Z,24.30
2022-10-18T14:18:30.035Z,23.30
2022-10-18T14:21:19.858Z,23.30
2022-10-18T14:23:48.402Z,23.50
2022-10-18T14:26:18.019Z,24.00
2022-10-18T14:28:59.704Z,23.80
2022-10-18T14:31:29.183Z,23.80
2022-10-18T14:34:01.149Z,23.20
2022-10-18T14:36:38.689Z,23.40
2022-10-18T14:39:15.694Z,23.30
2022-10-18T14:41:50.565Z,23.40
2022-10-18T14:44:19.847Z,23.80
2022-10-18T14:46:49.099Z,23.90
2022-10-18T14:49:17.502Z,23.30
2022-10-18T14:51:47.843Z,22.90
2022-10-18T14:54:17.636Z,23.40
2022-10-18T14:56:46.413Z,23.00
2022-10-18T14:59:19.516Z,23.30
2022-10-18T15:01:57.151Z,22.80
2022-10-18T15:04:28.481Z,22.80
2022-10-18T15:06:56.684Z,22.80
2022-10-18T15:09:24.639Z,22.60
2022-10-18T15:11:55.015Z,23.00
2022-10-18T15:14:24.325Z,22.70
2022-10-18T15:16:52.172Z,22.90
2022-10-18T15:19:26.960Z,22.70
2022-10-18T15:22:07.989Z,22.80
2022-10-18T15:24:44.268Z,23.00
2022-10-18T15:27:14.289Z,23.00
2022-10-18T15:29:44.433Z,22.80
2022-10-18T15:32:16.581Z,22.80
2022-10-18T15:34:44.507Z,23.00
2022-10-18T15:37:19.318Z,23.60
2022-10-18T15:39:47.199Z,23.70
2022-10-18T15:42:29.910Z,23.10
2022-10-18T15:44:59.225Z,22.50
2022-10-18T15:47:27.070Z,22.60
2022-10-18T15:49:56.366Z,23.30
2022-10-18T15:52:40.728Z,23.00
2022-10-18T15:55:33.026Z,22.60
2022-10-18T15:58:03.836Z,23.10
2022-10-18T16:00:33.118Z,23.10
2022-10-18T16:03:00.969Z,23.30
2022-10-18T16:05:28.858Z,23.10
2022-10-18T16:07:56.717Z,23.20
2022-10-18T16:10:25.005Z,23.60
2022-10-18T16:12:52.874Z,23.40
2022-10-18T16:15:20.753Z,23.50
2022-10-18T16:17:49.979Z,23.60
2022-10-18T16:20:19.713Z,23.70
2022-10-18T16:22:47.543Z,23.60
2022-10-18T16:25:15.544Z,23.50
2022-10-18T16:27:43.414Z,22.80
2022-10-18T16:30:12.363Z,22.50
2022-10-18T16:32:40.792Z,22.80
2022-10-18T16:35:12.500Z,22.80
2022-10-18T16:37:40.570Z,22.80
2022-10-18T16:42:45.944Z,22.40
2022-10-18T16:45:13.882Z,22.40
2022-10-18T16:47:41.725Z,22.80
2022-10-18T16:50:13.533Z,22.40
2022-10-18T16:52:41.770Z,22.90
2022-10-18T16:55:16.321Z,22.80
2022-10-18T16:57:44.287Z,22.50
2022-10-18T17:00:14.646Z,23.00
2022-10-18T17:02:42.545Z,23.20
2022-10-18T17:05:10.507Z,23.10
2022-10-18T17:07:39.906Z,23.20
2022-10-18T17:10:08.556Z,23.30
2022-10-18T17:12:37.660Z,22.90
2022-10-18T17:15:08.346Z,23.10
2022-10-18T17:17:37.738Z,22.90
2022-10-18T17:20:07.074Z,22.90
2022-10-18T17:22:37.192Z,22.50
2022-10-18T17:25:07.581Z,22.30
2022-10-18T17:27:39.256Z,22.60
2022-10-18T17:30:08.246Z,22.70
2022-10-18T17:32:36.755Z,23.00
2022-10-18T17:35:08.524Z,22.80
2022-10-18T17:37:44.081Z,22.90
2022-10-18T17:40:15.887Z,22.80
2022-10-18T17:42:44.582Z,22.90
2022-10-18T17:45:16.114Z,22.50
2022-10-18T17:47:47.588Z,22.30
2022-10-18T17:50:16.053Z,22.40
2022-10-18T17:52:44.642Z,22.70
2022-10-18T17:55:13.194Z,23.00
2022-10-18T17:57:43.436Z,22.80
2022-10-18T18:00:12.528Z,23.10
2022-10-18T18:02:46.919Z,23.20
2022-10-18T18:05:15.119Z,23.00
2022-10-18T18:07:44.557Z,22.90
2022-10-18T18:10:18.062Z,22.90
2022-10-18T18:12:50.412Z,23.00
2022-10-18T18:15:18.972Z,22.80
2022-10-18T18:17:56.654Z,22.80
2022-10-18T18:20:26.106Z,22.80
2022-10-18T18:22:54.512Z,22.50
2022-10-18T18:25:24.231Z,22.50
2022-10-18T18:27:57.016Z,22.40
2022-10-18T18:30:25.578Z,22.60
2022-10-18T18:32:54.197Z,22.60
2022-10-18T18:35:23.022Z,22.70
2022-10-18T18:37:51.168Z,22.50
2022-10-18T18:40:19.195Z,22.40
2022-10-18T18:43:01.593Z,22.30
2022-10-18T18:45:36.494Z,22.30
2022-10-18T18:48:04.490Z,22.20
2022-10-18T18:50:33.117Z,22.10
2022-10-18T18:53:00.969Z,22.20
2022-10-18T18:55:28.809Z,22.20
2022-10-18T18:57:56.709Z,22.10
2022-10-18T19:00:24.608Z,22.00
2022-10-18T19:02:54.106Z,22.00
2022-10-18T19:07:54.819Z,22.10
2022-10-18T19:10:22.707Z,22.20
2022-10-18T19:12:50.849Z,22.10
2022-10-18T19:15:18.724Z,21.80
2022-10-18T19:17:46.616Z,22.00
2022-10-18T19:20:17.724Z,22.10
2022-10-18T19:22:45.677Z,21.80
2022-10-18T19:25:13.583Z,21.60
2022-10-18T19:27:41.470Z,21.70
2022-10-18T19:30:09.830Z,21.80
2022-10-18T19:32:37.768Z,21.90
2022-10-18T19:35:05.984Z,22.00
2022-10-18T19:37:35.487Z,21.50
2022-10-18T19:40:03.643Z,21.90
2022-10-18T19:42:31.880Z,21.70
2022-10-18T19:44:59.823Z,21.80
2022-10-18T19:47:27.698Z,22.00
2022-10-18T19:49:55.611Z,21.80
2022-10-18T19:52:23.595Z,22.10
2022-10-18T19:54:52.840Z,22.00
2022-10-18T19:57:20.745Z,22.00
2022-10-18T19:59:48.740Z,22.00
2022-10-18T20:02:16.640Z,22.00
2022-10-18T20:04:44.526Z,21.60
2022-10-18T20:07:12.408Z,21.70
2022-10-18T20:09:40.713Z,21.50
2022-10-18T20:12:10.150Z,21.20
2022-10-18T20:14:38.065Z,21.00
2022-10-18T20:17:06.523Z,21.10
2022-10-18T20:19:34.422Z,21.30
2022-10-18T20:22:02.321Z,21.30
2022-10-18T20:24:30.180Z,21.30
2022-10-18T20:26:58.096Z,20.80
2022-10-18T20:29:27.348Z,21.30
2022-10-18T20:31:56.686Z,21.30
2022-10-18T20:34:26.212Z,21.20
2022-10-18T20:36:54.634Z,21.30
2022-10-18T20:39:22.626Z,21.00
2022-10-18T20:41:50.801Z,21.00
2022-10-18T20:44:19.549Z,20.80
2022-10-18T20:46:48.779Z,20.50
2022-10-18T20:49:17.020Z,20.30
2022-10-18T20:51:44.991Z,20.30
2022-10-18T20:54:12.956Z,20.40
2022-10-18T20:56:40.920Z,20.70
2022-10-18T20:59:10.142Z,20.40
2022-10-18T21:01:38.934Z,20.30
2022-10-18T21:04:08.793Z,20.30
2022-10-18T21:06:37.017Z,20.10
2022-10-18T21:09:05.554Z,20.00
2022-10-18T21:11:35.504Z,19.90
2022-10-18T21:14:03.865Z,20.20
2022-10-18T21:16:31.894Z,20.10
2022-10-18T21:19:02.585Z,20.00
2022-10-18T21:21:31.858Z,20.00
2022-10-18T21:24:02.516Z,20.00
2022-10-18T21:26:33.387Z,19.70
2022-10-18T21:29:01.387Z,19.60
2022-10-18T21:31:29.669Z,19.50
2022-10-18T21:33:57.836Z,19.30
2022-10-18T21:36:25.733Z,19.60
2022-10-18T21:38:54.975Z,19.70
2022-10-18T21:41:22.896Z,19.70
2022-10-18T21:43:51.132Z,19.30
2022-10-18T21:46:19.229Z,19.30
2022-10-18T21:48:47.524Z,19.30
2022-10-18T21:51:15.848Z,18.90
2022-10-18T21:53:44.186Z,19.20
2022-10-18T21:56:14.124Z,19.30
2022-10-18T21:58:42.072Z,19.30
2022-10-18T22:01:10.220Z,19.30
2022-10-18T22:03:38.342Z,19.40
2022-10-18T22:06:07.676Z,19.20
2022-10-18T22:08:35.568Z,19.20
2022-10-18T22:11:03.546Z,19.30
2022-10-18T22:13:32.792Z,19.00
2022-10-18T22:16:01.424Z,19.10
2022-10-18T22:18:29.479Z,18.90
2022-10-18T22:20:57.381Z,18.80
2022-10-18T22:23:25.264Z,19.10
2022-10-18T22:25:53.107Z,19.00
2022-10-18T22:28:20.966Z,18.90
2022-10-18T22:30:50.191Z,18.40
2022-10-18T22:33:18.072Z,18.50
2022-10-18T22:35:49.621Z,18.40
2022-10-18T22:38:17.500Z,18.40
2022-10-18T22:40:45.373Z,18.30
2022-10-18T22:43:13.295Z,18.60
2022-10-18T22:45:41.191Z,18.50
2022-10-18T22:48:10.455Z,18.50
2022-10-18T22:50:38.324Z,18.70
2022-10-18T22:53:06.209Z,18.40
2022-10-18T22:55:34.068Z,18.40
2022-10-18T22:58:01.944Z,18.30
2022-10-18T23:00:29.837Z,17.90
2022-10-18T23:02:57.835Z,18.00
2022-10-18T23:05:27.102Z,18.30
2022-10-18T23:07:54.969Z,18.40
2022-10-18T23:10:22.840Z,18.50
2022-10-18T23:12:50.737Z,18.30
2022-10-18T23:15:18.607Z,18.50
2022-10-18T23:17:46.483Z,18.80
2022-10-18T23:20:15.772Z,18.60
2022-10-18T23:22:45.034Z,18.60
2022-10-18T23:30:49.035Z,18.60
2022-10-18T23:33:16.914Z,18.20
2022-10-18T23:35:44.759Z,17.70
2022-10-18T23:38:14.040Z,18.10
2022-10-18T23:43:41.367Z,18.20
2022-10-18T23:46:09.388Z,18.00
2022-10-18T23:48:37.257Z,17.70
2022-10-18T23:51:05.973Z,17.80
2022-10-18T23:53:35.473Z,17.90
2022-10-18T23:56:03.742Z,17.90
2022-10-18T23:58:32.268Z,18.00
